sensor_id;sensor_type;location;lat;lon;timestamp;temperature;humidity
13203;DHT22;6666;51.626;7.530;2023-07-20T00:02:27;17.10;99.90
13203;DHT22;6666;51.626;7.530;2023-07-20T00:04:55;17.10;99.90
13203;DHT22;6666;51.626;7.530;2023-07-20T00:07:23;17.00;99.90
13203;DHT22;6666;51.626;7.530;2023-07-20T00:09:53;17.10;99.90
13203;DHT22;6666;51.626;7.530;2023-07-20T00:12:21;17.10;99.90
13203;DHT22;6666;51.626;7.530;2023-07-20T00:14:49;17.20;99.90
13203;DHT22;6666;51.626;7.530;2023-07-20T00:17:20;17.20;99.90
13203;DHT22;6666;51.626;7.530;2023-07-20T00:19:48;17.10;99.90
13203;DHT22;6666;51.626;7.530;2023-07-20T00:22:17;17.10;99.90
13203;DHT22;6666;51.626;7.530;2023-07-20T00:24:45;17.10;99.90
13203;DHT22;6666;51.626;7.530;2023-07-20T00:27:14;17.10;99.90
13203;DHT22;6666;51.626;7.530;2023-07-20T00:29:42;17.10;99.90
13203;DHT22;6666;51.626;7.530;2023-07-20T00:32:10;17.10;99.90
13203;DHT22;6666;51.626;7.530;2023-07-20T00:34:39;17.10;99.90
13203;DHT22;6666;51.626;7.530;2023-07-20T00:37:07;17.10;99.90
13203;DHT22;6666;51.626;7.530;2023-07-20T00:39:37;17.10;99.90
13203;DHT22;6666;51.626;7.530;2023-07-20T00:42:05;17.10;99.90
13203;DHT22;6666;51.626;7.530;2023-07-20T00:44:35;17.10;99.90
13203;DHT22;6666;51.626;7.530;2023-07-20T00:47:04;17.10;99.90
13203;DHT22;6666;51.626;7.530;2023-07-20T00:49:32;17.10;99.90
13203;DHT22;6666;51.626;7.530;2023-07-20T00:52:01;17.10;99.90
13203;DHT22;6666;51.626;7.530;2023-07-20T00:54:31;17.20;99.90
13203;DHT22;6666;51.626;7.530;2023-07-20T00:57:00;17.20;99.90
13203;DHT22;6666;51.626;7.530;2023-07-20T00:59:29;17.20;99.90
13203;DHT22;6666;51.626;7.530;2023-07-20T01:01:59;17.10;99.90
13203;DHT22;6666;51.626;7.530;2023-07-20T01:04:27;17.10;99.90
13203;DHT22;6666;51.626;7.530;2023-07-20T01:07:02;17.10;99.90
13203;DHT22;6666;51.626;7.530;2023-07-20T01:09:37;17.10;99.90
13203;DHT22;6666;51.626;7.530;2023-07-20T01:12:09;17.20;99.90
13203;DHT22;6666;51.626;7.530;2023-07-20T01:14:40;17.20;99.90
13203;DHT22;6666;51.626;7.530;2023-07-20T01:17:10;17.20;99.90
13203;DHT22;6666;51.626;7.530;2023-07-20T01:19:39;17.20;99.90
13203;DHT22;6666;51.626;7.530;2023-07-20T01:22:15;17.20;99.90
13203;DHT22;6666;51.626;7.530;2023-07-20T01:27:57;17.20;99.90
13203;DHT22;6666;51.626;7.530;2023-07-20T01:30:46;17.30;99.90
13203;DHT22;6666;51.626;7.530;2023-07-20T01:33:20;17.20;99.90
13203;DHT22;6666;51.626;7.530;2023-07-20T01:35:52;17.20;99.90
13203;DHT22;6666;51.626;7.530;2023-07-20T01:38:21;17.20;99.90
13203;DHT22;6666;51.626;7.530;2023-07-20T01:40:52;17.20;99.90
13203;DHT22;6666;51.626;7.530;2023-07-20T01:43:20;17.20;99.90
13203;DHT22;6666;51.626;7.530;2023-07-20T01:45:48;17.20;99.90
13203;DHT22;6666;51.626;7.530;2023-07-20T01:48:16;17.20;99.90
13203;DHT22;6666;51.626;7.530;2023-07-20T01:50:46;17.20;99.90
13203;DHT22;6666;51.626;7.530;2023-07-20T01:53:15;17.10;99.90
13203;DHT22;6666;51.626;7.530;2023-07-20T01:55:43;17.20;99.90
13203;DHT22;6666;51.626;7.530;2023-07-20T01:58:13;17.10;99.90
13203;DHT22;6666;51.626;7.530;2023-07-20T02:00:41;17.20;99.90
13203;DHT22;6666;51.626;7.530;2023-07-20T02:03:09;17.10;99.90
13203;DHT22;6666;51.626;7.530;2023-07-20T02:05:39;17.10;99.90
13203;DHT22;6666;51.626;7.530;2023-07-20T02:08:10;17.10;99.90
13203;DHT22;6666;51.626;7.530;2023-07-20T02:10:38;17.10;99.90
13203;DHT22;6666;51.626;7.530;2023-07-20T02:13:07;17.10;99.90
13203;DHT22;6666;51.626;7.530;2023-07-20T02:15:35;17.10;99.90
13203;DHT22;6666;51.626;7.530;2023-07-20T02:18:03;17.10;99.90
13203;DHT22;6666;51.626;7.530;2023-07-20T02:20:33;17.10;99.90
13203;DHT22;6666;51.626;7.530;2023-07-20T02:23:02;17.00;99.90
13203;DHT22;6666;51.626;7.530;2023-07-20T02:25:31;16.90;99.90
13203;DHT22;6666;51.626;7.530;2023-07-20T02:27:59;17.00;99.90
13203;DHT22;6666;51.626;7.530;2023-07-20T02:30:27;16.90;99.90
13203;DHT22;6666;51.626;7.530;2023-07-20T02:32:55;17.00;99.90
13203;DHT22;6666;51.626;7.530;2023-07-20T02:35:25;17.00;99.90
13203;DHT22;6666;51.626;7.530;2023-07-20T02:37:53;17.00;99.90
13203;DHT22;6666;51.626;7.530;2023-07-20T02:40:22;16.90;99.90
13203;DHT22;6666;51.626;7.530;2023-07-20T02:42:51;16.90;99.90
13203;DHT22;6666;51.626;7.530;2023-07-20T02:45:20;16.80;99.90
13203;DHT22;6666;51.626;7.530;2023-07-20T02:47:48;16.80;99.90
13203;DHT22;6666;51.626;7.530;2023-07-20T02:50:17;16.90;99.90
13203;DHT22;6666;51.626;7.530;2023-07-20T02:52:46;16.80;99.90
13203;DHT22;6666;51.626;7.530;2023-07-20T02:55:14;16.80;99.90
13203;DHT22;6666;51.626;7.530;2023-07-20T02:57:42;16.80;99.90
13203;DHT22;6666;51.626;7.530;2023-07-20T03:00:13;16.80;99.90
13203;DHT22;6666;51.626;7.530;2023-07-20T03:02:43;16.80;99.90
13203;DHT22;6666;51.626;7.530;2023-07-20T03:05:14;16.80;99.90
13203;DHT22;6666;51.626;7.530;2023-07-20T03:07:43;16.80;99.90
13203;DHT22;6666;51.626;7.530;2023-07-20T03:10:12;16.80;99.90
13203;DHT22;6666;51.626;7.530;2023-07-20T03:12:40;16.70;99.90
13203;DHT22;6666;51.626;7.530;2023-07-20T03:15:09;16.70;99.90
13203;DHT22;6666;51.626;7.530;2023-07-20T03:17:39;16.70;99.90
13203;DHT22;6666;51.626;7.530;2023-07-20T03:20:09;16.70;99.90
13203;DHT22;6666;51.626;7.530;2023-07-20T03:22:40;16.70;99.90
13203;DHT22;6666;51.626;7.530;2023-07-20T03:25:09;16.80;99.90
13203;DHT22;6666;51.626;7.530;2023-07-20T03:27:37;16.70;99.90
13203;DHT22;6666;51.626;7.530;2023-07-20T03:30:06;16.70;99.90
13203;DHT22;6666;51.626;7.530;2023-07-20T03:32:36;16.70;99.90
13203;DHT22;6666;51.626;7.530;2023-07-20T03:35:07;16.70;99.90
13203;DHT22;6666;51.626;7.530;2023-07-20T03:37:36;16.60;99.90
13203;DHT22;6666;51.626;7.530;2023-07-20T03:40:06;16.60;99.90
13203;DHT22;6666;51.626;7.530;2023-07-20T03:42:34;16.60;99.90
13203;DHT22;6666;51.626;7.530;2023-07-20T03:45:03;16.70;99.90
13203;DHT22;6666;51.626;7.530;2023-07-20T03:47:33;16.60;99.90
13203;DHT22;6666;51.626;7.530;2023-07-20T03:50:01;16.60;99.90
13203;DHT22;6666;51.626;7.530;2023-07-20T03:52:33;16.60;99.90
13203;DHT22;6666;51.626;7.530;2023-07-20T03:55:01;16.60;99.90
13203;DHT22;6666;51.626;7.530;2023-07-20T03:57:30;16.60;99.90
13203;DHT22;6666;51.626;7.530;2023-07-20T03:59:59;16.60;99.90
13203;DHT22;6666;51.626;7.530;2023-07-20T04:02:27;16.60;99.90
13203;DHT22;6666;51.626;7.530;2023-07-20T04:04:55;16.50;99.90
13203;DHT22;6666;51.626;7.530;2023-07-20T04:07:23;16.50;99.90
13203;DHT22;6666;51.626;7.530;2023-07-20T04:09:53;16.50;99.90
13203;DHT22;6666;51.626;7.530;2023-07-20T04:12:21;16.50;99.90
13203;DHT22;6666;51.626;7.530;2023-07-20T04:14:49;16.60;99.90
13203;DHT22;6666;51.626;7.530;2023-07-20T04:17:18;16.60;99.90
13203;DHT22;6666;51.626;7.530;2023-07-20T04:19:46;16.50;99.90
13203;DHT22;6666;51.626;7.530;2023-07-20T04:22:14;16.60;99.90
13203;DHT22;6666;51.626;7.530;2023-07-20T04:24:43;16.60;99.90
13203;DHT22;6666;51.626;7.530;2023-07-20T04:27:12;16.50;99.90
13203;DHT22;6666;51.626;7.530;2023-07-20T04:29:40;16.50;99.90
13203;DHT22;6666;51.626;7.530;2023-07-20T04:32:09;16.50;99.90
13203;DHT22;6666;51.626;7.530;2023-07-20T04:34:37;16.60;99.90
13203;DHT22;6666;51.626;7.530;2023-07-20T04:37:06;16.60;99.90
13203;DHT22;6666;51.626;7.530;2023-07-20T04:39:34;16.60;99.90
13203;DHT22;6666;51.626;7.530;2023-07-20T04:42:07;16.60;99.90
13203;DHT22;6666;51.626;7.530;2023-07-20T04:44:37;16.50;99.90
13203;DHT22;6666;51.626;7.530;2023-07-20T04:47:07;16.50;99.90
13203;DHT22;6666;51.626;7.530;2023-07-20T04:49:38;16.50;99.90
13203;DHT22;6666;51.626;7.530;2023-07-20T04:52:07;16.40;99.90
13203;DHT22;6666;51.626;7.530;2023-07-20T04:54:36;16.50;99.90
13203;DHT22;6666;51.626;7.530;2023-07-20T04:57:11;16.50;99.90
13203;DHT22;6666;51.626;7.530;2023-07-20T04:59:46;17.60;99.90
13203;DHT22;6666;51.626;7.530;2023-07-20T05:02:14;18.90;99.90
13203;DHT22;6666;51.626;7.530;2023-07-20T05:04:42;18.50;99.90
13203;DHT22;6666;51.626;7.530;2023-07-20T05:07:10;17.80;99.90
13203;DHT22;6666;51.626;7.530;2023-07-20T05:09:39;17.20;99.90
13203;DHT22;6666;51.626;7.530;2023-07-20T05:12:08;16.90;99.90
13203;DHT22;6666;51.626;7.530;2023-07-20T05:14:36;16.90;99.90
13203;DHT22;6666;51.626;7.530;2023-07-20T05:17:06;16.70;99.90
13203;DHT22;6666;51.626;7.530;2023-07-20T05:19:34;16.60;99.90
13203;DHT22;6666;51.626;7.530;2023-07-20T05:22:03;16.50;99.90
13203;DHT22;6666;51.626;7.530;2023-07-20T05:24:32;16.40;99.90
13203;DHT22;6666;51.626;7.530;2023-07-20T05:27:00;16.30;99.90
13203;DHT22;6666;51.626;7.530;2023-07-20T05:29:28;16.40;99.90
13203;DHT22;6666;51.626;7.530;2023-07-20T05:31:56;16.50;99.90
13203;DHT22;6666;51.626;7.530;2023-07-20T05:34:26;16.50;99.90
13203;DHT22;6666;51.626;7.530;2023-07-20T05:36:55;16.60;99.90
13203;DHT22;6666;51.626;7.530;2023-07-20T05:39:23;16.50;99.90
13203;DHT22;6666;51.626;7.530;2023-07-20T05:41:51;16.60;99.90
13203;DHT22;6666;51.626;7.530;2023-07-20T05:44:19;16.80;99.90
13203;DHT22;6666;51.626;7.530;2023-07-20T05:46:47;17.00;99.90
13203;DHT22;6666;51.626;7.530;2023-07-20T05:49:25;17.60;99.90
13203;DHT22;6666;51.626;7.530;2023-07-20T05:51:54;17.30;99.90
13203;DHT22;6666;51.626;7.530;2023-07-20T05:54:23;17.10;99.90
13203;DHT22;6666;51.626;7.530;2023-07-20T05:56:51;16.90;99.90
13203;DHT22;6666;51.626;7.530;2023-07-20T05:59:20;16.90;99.90
13203;DHT22;6666;51.626;7.530;2023-07-20T06:01:48;16.90;99.90
13203;DHT22;6666;51.626;7.530;2023-07-20T06:04:16;17.00;99.90
13203;DHT22;6666;51.626;7.530;2023-07-20T06:06:45;17.10;99.90
13203;DHT22;6666;51.626;7.530;2023-07-20T06:09:14;17.10;99.90
13203;DHT22;6666;51.626;7.530;2023-07-20T06:11:43;17.20;99.90
13203;DHT22;6666;51.626;7.530;2023-07-20T06:14:11;17.10;99.90
13203;DHT22;6666;51.626;7.530;2023-07-20T06:16:39;17.00;99.90
13203;DHT22;6666;51.626;7.530;2023-07-20T06:19:07;17.10;99.90
13203;DHT22;6666;51.626;7.530;2023-07-20T06:21:37;17.00;99.90
13203;DHT22;6666;51.626;7.530;2023-07-20T06:24:07;16.80;99.90
13203;DHT22;6666;51.626;7.530;2023-07-20T06:26:35;16.80;99.90
13203;DHT22;6666;51.626;7.530;2023-07-20T06:29:05;16.80;99.90
13203;DHT22;6666;51.626;7.530;2023-07-20T06:31:34;16.90;99.90
13203;DHT22;6666;51.626;7.530;2023-07-20T06:34:02;17.00;99.90
13203;DHT22;6666;51.626;7.530;2023-07-20T06:36:31;17.10;99.90
13203;DHT22;6666;51.626;7.530;2023-07-20T06:38:59;17.40;99.90
13203;DHT22;6666;51.626;7.530;2023-07-20T06:41:31;17.50;99.90
13203;DHT22;6666;51.626;7.530;2023-07-20T06:44:02;17.40;99.90
13203;DHT22;6666;51.626;7.530;2023-07-20T06:46:31;17.40;99.90
13203;DHT22;6666;51.626;7.530;2023-07-20T06:49:00;17.50;99.90
13203;DHT22;6666;51.626;7.530;2023-07-20T06:51:31;17.50;99.90
13203;DHT22;6666;51.626;7.530;2023-07-20T06:53:59;17.40;99.90
13203;DHT22;6666;51.626;7.530;2023-07-20T06:56:27;17.50;99.90
13203;DHT22;6666;51.626;7.530;2023-07-20T06:58:59;17.50;99.90
13203;DHT22;6666;51.626;7.530;2023-07-20T07:01:29;17.60;99.90
13203;DHT22;6666;51.626;7.530;2023-07-20T07:03:57;17.70;99.90
13203;DHT22;6666;51.626;7.530;2023-07-20T07:06:26;17.60;99.90
13203;DHT22;6666;51.626;7.530;2023-07-20T07:08:55;17.50;99.90
13203;DHT22;6666;51.626;7.530;2023-07-20T07:11:23;17.30;99.90
13203;DHT22;6666;51.626;7.530;2023-07-20T07:13:51;17.30;99.90
13203;DHT22;6666;51.626;7.530;2023-07-20T07:16:25;17.40;99.90
13203;DHT22;6666;51.626;7.530;2023-07-20T07:18:53;17.90;99.90
13203;DHT22;6666;51.626;7.530;2023-07-20T07:21:26;18.10;99.90
13203;DHT22;6666;51.626;7.530;2023-07-20T07:23:54;18.00;99.90
13203;DHT22;6666;51.626;7.530;2023-07-20T07:26:24;18.20;99.90
13203;DHT22;6666;51.626;7.530;2023-07-20T07:28:52;18.20;99.90
13203;DHT22;6666;51.626;7.530;2023-07-20T07:31:20;18.30;99.90
13203;DHT22;6666;51.626;7.530;2023-07-20T07:33:51;18.30;99.90
13203;DHT22;6666;51.626;7.530;2023-07-20T07:36:19;18.20;99.90
13203;DHT22;6666;51.626;7.530;2023-07-20T07:38:48;18.10;99.90
13203;DHT22;6666;51.626;7.530;2023-07-20T07:41:36;18.20;99.90
13203;DHT22;6666;51.626;7.530;2023-07-20T07:44:04;18.50;99.90
13203;DHT22;6666;51.626;7.530;2023-07-20T07:46:33;18.60;99.90
13203;DHT22;6666;51.626;7.530;2023-07-20T07:49:02;18.40;99.90
13203;DHT22;6666;51.626;7.530;2023-07-20T07:51:30;18.40;99.90
13203;DHT22;6666;51.626;7.530;2023-07-20T07:53:59;18.40;99.90
13203;DHT22;6666;51.626;7.530;2023-07-20T07:56:27;18.30;99.90
13203;DHT22;6666;51.626;7.530;2023-07-20T07:58:55;18.00;99.90
13203;DHT22;6666;51.626;7.530;2023-07-20T08:01:23;18.10;99.90
13203;DHT22;6666;51.626;7.530;2023-07-20T08:03:52;18.50;99.90
13203;DHT22;6666;51.626;7.530;2023-07-20T08:06:22;18.80;99.90
13203;DHT22;6666;51.626;7.530;2023-07-20T08:08:51;18.90;99.90
13203;DHT22;6666;51.626;7.530;2023-07-20T08:11:19;18.80;99.90
13203;DHT22;6666;51.626;7.530;2023-07-20T08:13:47;19.20;99.90
13203;DHT22;6666;51.626;7.530;2023-07-20T08:16:15;19.30;99.90
13203;DHT22;6666;51.626;7.530;2023-07-20T08:18:44;19.40;99.90
13203;DHT22;6666;51.626;7.530;2023-07-20T08:21:12;19.00;99.90
13203;DHT22;6666;51.626;7.530;2023-07-20T08:23:42;18.80;99.90
13203;DHT22;6666;51.626;7.530;2023-07-20T08:26:10;18.90;99.90
13203;DHT22;6666;51.626;7.530;2023-07-20T08:28:38;19.10;99.90
13203;DHT22;6666;51.626;7.530;2023-07-20T08:31:06;19.20;99.90
13203;DHT22;6666;51.626;7.530;2023-07-20T08:33:35;19.40;99.90
13203;DHT22;6666;51.626;7.530;2023-07-20T08:36:03;19.50;99.90
13203;DHT22;6666;51.626;7.530;2023-07-20T08:38:33;19.20;99.90
13203;DHT22;6666;51.626;7.530;2023-07-20T08:41:02;19.00;99.90
13203;DHT22;6666;51.626;7.530;2023-07-20T08:43:31;19.00;99.90
13203;DHT22;6666;51.626;7.530;2023-07-20T08:46:02;19.40;99.90
13203;DHT22;6666;51.626;7.530;2023-07-20T08:48:31;19.40;99.90
13203;DHT22;6666;51.626;7.530;2023-07-20T08:51:00;19.30;99.90
13203;DHT22;6666;51.626;7.530;2023-07-20T08:53:30;19.30;99.90
13203;DHT22;6666;51.626;7.530;2023-07-20T08:56:00;19.50;99.90
13203;DHT22;6666;51.626;7.530;2023-07-20T08:58:30;19.90;99.90
13203;DHT22;6666;51.626;7.530;2023-07-20T09:00:59;19.90;99.90
13203;DHT22;6666;51.626;7.530;2023-07-20T09:03:29;20.00;99.90
13203;DHT22;6666;51.626;7.530;2023-07-20T09:05:57;20.10;99.90
13203;DHT22;6666;51.626;7.530;2023-07-20T09:08:26;20.00;99.90
13203;DHT22;6666;51.626;7.530;2023-07-20T09:10:54;20.20;99.90
13203;DHT22;6666;51.626;7.530;2023-07-20T09:13:22;20.50;99.90
13203;DHT22;6666;51.626;7.530;2023-07-20T09:15:54;20.10;99.90
13203;DHT22;6666;51.626;7.530;2023-07-20T09:18:26;19.80;99.90
13203;DHT22;6666;51.626;7.530;2023-07-20T09:20:58;19.70;99.90
13203;DHT22;6666;51.626;7.530;2023-07-20T09:23:32;19.70;99.90
13203;DHT22;6666;51.626;7.530;2023-07-20T09:26:00;20.10;99.90
13203;DHT22;6666;51.626;7.530;2023-07-20T09:28:28;20.10;99.90
13203;DHT22;6666;51.626;7.530;2023-07-20T09:31:15;19.90;99.90
13203;DHT22;6666;51.626;7.530;2023-07-20T09:33:44;19.80;99.90
13203;DHT22;6666;51.626;7.530;2023-07-20T09:36:15;19.80;99.90
13203;DHT22;6666;51.626;7.530;2023-07-20T09:39:03;20.00;99.90
13203;DHT22;6666;51.626;7.530;2023-07-20T09:41:40;20.10;99.90
13203;DHT22;6666;51.626;7.530;2023-07-20T09:44:14;20.20;99.90
13203;DHT22;6666;51.626;7.530;2023-07-20T09:46:47;20.20;99.90
13203;DHT22;6666;51.626;7.530;2023-07-20T09:49:18;20.30;99.90
13203;DHT22;6666;51.626;7.530;2023-07-20T09:51:50;20.30;99.90
13203;DHT22;6666;51.626;7.530;2023-07-20T09:54:21;20.50;99.90
13203;DHT22;6666;51.626;7.530;2023-07-20T09:56:51;20.30;99.90
13203;DHT22;6666;51.626;7.530;2023-07-20T09:59:19;20.50;99.90
13203;DHT22;6666;51.626;7.530;2023-07-20T10:01:49;20.80;99.90
13203;DHT22;6666;51.626;7.530;2023-07-20T10:04:21;20.60;99.90
13203;DHT22;6666;51.626;7.530;2023-07-20T10:06:52;20.60;99.90
13203;DHT22;6666;51.626;7.530;2023-07-20T10:09:24;20.70;99.90
13203;DHT22;6666;51.626;7.530;2023-07-20T10:11:53;20.60;99.90
13203;DHT22;6666;51.626;7.530;2023-07-20T10:14:26;20.50;99.90
13203;DHT22;6666;51.626;7.530;2023-07-20T10:17:01;20.60;99.90
13203;DHT22;6666;51.626;7.530;2023-07-20T10:19:34;20.60;99.90
13203;DHT22;6666;51.626;7.530;2023-07-20T10:22:20;20.60;99.90
13203;DHT22;6666;51.626;7.530;2023-07-20T10:24:50;20.30;99.90
13203;DHT22;6666;51.626;7.530;2023-07-20T10:27:20;20.10;99.90
13203;DHT22;6666;51.626;7.530;2023-07-20T10:29:49;20.00;99.90
13203;DHT22;6666;51.626;7.530;2023-07-20T10:32:20;20.30;99.90
13203;DHT22;6666;51.626;7.530;2023-07-20T10:34:50;20.50;99.90
13203;DHT22;6666;51.626;7.530;2023-07-20T10:37:51;20.70;99.90
13203;DHT22;6666;51.626;7.530;2023-07-20T10:40:30;20.90;99.90
13203;DHT22;6666;51.626;7.530;2023-07-20T10:43:03;20.80;99.90
13203;DHT22;6666;51.626;7.530;2023-07-20T10:45:41;20.40;99.90
13203;DHT22;6666;51.626;7.530;2023-07-20T10:48:19;20.20;99.90
13203;DHT22;6666;51.626;7.530;2023-07-20T10:51:08;20.60;99.90
13203;DHT22;6666;51.626;7.530;2023-07-20T10:53:36;20.90;99.90
13203;DHT22;6666;51.626;7.530;2023-07-20T10:56:11;21.40;99.90
13203;DHT22;6666;51.626;7.530;2023-07-20T10:58:40;21.50;99.90
13203;DHT22;6666;51.626;7.530;2023-07-20T11:01:13;21.80;99.90
13203;DHT22;6666;51.626;7.530;2023-07-20T11:03:49;21.80;99.90
13203;DHT22;6666;51.626;7.530;2023-07-20T11:06:30;21.30;99.90
13203;DHT22;6666;51.626;7.530;2023-07-20T11:09:07;21.20;99.90
13203;DHT22;6666;51.626;7.530;2023-07-20T11:11:38;21.30;99.90
13203;DHT22;6666;51.626;7.530;2023-07-20T11:14:08;21.00;99.90
13203;DHT22;6666;51.626;7.530;2023-07-20T11:16:38;21.10;99.90
13203;DHT22;6666;51.626;7.530;2023-07-20T11:19:14;21.40;99.90
13203;DHT22;6666;51.626;7.530;2023-07-20T11:22:04;21.40;99.90
13203;DHT22;6666;51.626;7.530;2023-07-20T11:24:37;21.80;99.90
13203;DHT22;6666;51.626;7.530;2023-07-20T11:27:06;21.80;99.90
13203;DHT22;6666;51.626;7.530;2023-07-20T11:29:35;21.40;99.90
13203;DHT22;6666;51.626;7.530;2023-07-20T11:32:04;21.60;99.90
13203;DHT22;6666;51.626;7.530;2023-07-20T11:34:34;21.80;99.90
13203;DHT22;6666;51.626;7.530;2023-07-20T11:37:03;21.60;99.90
13203;DHT22;6666;51.626;7.530;2023-07-20T11:39:36;21.50;99.90
13203;DHT22;6666;51.626;7.530;2023-07-20T11:42:05;21.40;99.90
13203;DHT22;6666;51.626;7.530;2023-07-20T11:44:33;21.30;99.90
13203;DHT22;6666;51.626;7.530;2023-07-20T11:47:05;21.40;99.90
13203;DHT22;6666;51.626;7.530;2023-07-20T11:49:39;21.50;99.90
13203;DHT22;6666;51.626;7.530;2023-07-20T11:52:09;21.40;99.90
13203;DHT22;6666;51.626;7.530;2023-07-20T11:54:39;21.40;99.90
13203;DHT22;6666;51.626;7.530;2023-07-20T11:57:16;21.70;99.90
13203;DHT22;6666;51.626;7.530;2023-07-20T11:59:53;21.90;99.90
13203;DHT22;6666;51.626;7.530;2023-07-20T12:02:22;21.80;99.90
13203;DHT22;6666;51.626;7.530;2023-07-20T12:04:54;22.00;99.90
13203;DHT22;6666;51.626;7.530;2023-07-20T12:07:22;22.20;99.90
13203;DHT22;6666;51.626;7.530;2023-07-20T12:10:03;22.00;99.90
13203;DHT22;6666;51.626;7.530;2023-07-20T12:12:32;22.10;99.70
13203;DHT22;6666;51.626;7.530;2023-07-20T12:15:14;21.70;98.20
13203;DHT22;6666;51.626;7.530;2023-07-20T12:17:43;21.50;99.70
13203;DHT22;6666;51.626;7.530;2023-07-20T12:20:13;21.40;99.80
13203;DHT22;6666;51.626;7.530;2023-07-20T12:22:43;21.80;99.80
13203;DHT22;6666;51.626;7.530;2023-07-20T12:25:11;21.90;99.20
13203;DHT22;6666;51.626;7.530;2023-07-20T12:27:39;21.40;98.90
13203;DHT22;6666;51.626;7.530;2023-07-20T12:30:08;21.30;99.70
13203;DHT22;6666;51.626;7.530;2023-07-20T12:32:37;21.40;99.40
13203;DHT22;6666;51.626;7.530;2023-07-20T12:35:05;21.70;99.30
13203;DHT22;6666;51.626;7.530;2023-07-20T12:37:35;21.90;98.20
13203;DHT22;6666;51.626;7.530;2023-07-20T12:40:04;22.00;98.20
13203;DHT22;6666;51.626;7.530;2023-07-20T12:42:37;22.20;97.30
13203;DHT22;6666;51.626;7.530;2023-07-20T12:45:07;22.30;96.90
13203;DHT22;6666;51.626;7.530;2023-07-20T12:47:35;22.40;96.40
13203;DHT22;6666;51.626;7.530;2023-07-20T12:50:04;22.20;96.10
13203;DHT22;6666;51.626;7.530;2023-07-20T12:52:36;21.70;95.70
13203;DHT22;6666;51.626;7.530;2023-07-20T12:55:06;21.60;96.20
13203;DHT22;6666;51.626;7.530;2023-07-20T12:57:35;21.90;96.10
13203;DHT22;6666;51.626;7.530;2023-07-20T13:00:04;22.00;97.70
13203;DHT22;6666;51.626;7.530;2023-07-20T13:02:35;22.20;95.50
13203;DHT22;6666;51.626;7.530;2023-07-20T13:05:03;22.20;94.60
13203;DHT22;6666;51.626;7.530;2023-07-20T13:07:33;22.30;95.60
13203;DHT22;6666;51.626;7.530;2023-07-20T13:10:06;22.20;95.00
13203;DHT22;6666;51.626;7.530;2023-07-20T13:12:35;22.40;95.40
13203;DHT22;6666;51.626;7.530;2023-07-20T13:15:05;22.50;93.20
13203;DHT22;6666;51.626;7.530;2023-07-20T13:17:34;22.30;93.90
13203;DHT22;6666;51.626;7.530;2023-07-20T13:20:03;22.80;96.50
13203;DHT22;6666;51.626;7.530;2023-07-20T13:22:31;22.70;96.80
13203;DHT22;6666;51.626;7.530;2023-07-20T13:24:59;22.70;96.20
13203;DHT22;6666;51.626;7.530;2023-07-20T13:27:29;22.80;95.80
13203;DHT22;6666;51.626;7.530;2023-07-20T13:29:59;23.00;95.60
13203;DHT22;6666;51.626;7.530;2023-07-20T13:32:29;22.90;95.30
13203;DHT22;6666;51.626;7.530;2023-07-20T13:35:00;23.20;95.30
13203;DHT22;6666;51.626;7.530;2023-07-20T13:37:28;22.90;92.80
13203;DHT22;6666;51.626;7.530;2023-07-20T13:39:56;22.80;93.50
13203;DHT22;6666;51.626;7.530;2023-07-20T13:42:25;22.50;94.70
13203;DHT22;6666;51.626;7.530;2023-07-20T13:44:55;22.20;94.70
13203;DHT22;6666;51.626;7.530;2023-07-20T13:47:23;22.30;94.60
13203;DHT22;6666;51.626;7.530;2023-07-20T13:49:51;22.60;93.90
13203;DHT22;6666;51.626;7.530;2023-07-20T13:52:30;22.70;94.50
13203;DHT22;6666;51.626;7.530;2023-07-20T13:55:02;22.60;93.80
13203;DHT22;6666;51.626;7.530;2023-07-20T13:57:32;22.50;92.80
13203;DHT22;6666;51.626;7.530;2023-07-20T14:00:03;22.60;93.60
13203;DHT22;6666;51.626;7.530;2023-07-20T14:02:38;22.60;92.50
13203;DHT22;6666;51.626;7.530;2023-07-20T14:05:09;22.70;92.30
13203;DHT22;6666;51.626;7.530;2023-07-20T14:07:40;22.80;93.60
13203;DHT22;6666;51.626;7.530;2023-07-20T14:10:10;22.90;93.70
13203;DHT22;6666;51.626;7.530;2023-07-20T14:12:41;23.00;93.60
13203;DHT22;6666;51.626;7.530;2023-07-20T14:15:11;22.90;92.70
13203;DHT22;6666;51.626;7.530;2023-07-20T14:17:39;22.60;92.60
13203;DHT22;6666;51.626;7.530;2023-07-20T14:20:08;22.30;92.60
13203;DHT22;6666;51.626;7.530;2023-07-20T14:22:39;22.30;92.60
13203;DHT22;6666;51.626;7.530;2023-07-20T14:25:08;22.20;92.80
13203;DHT22;6666;51.626;7.530;2023-07-20T14:27:36;22.10;93.00
13203;DHT22;6666;51.626;7.530;2023-07-20T14:30:06;22.00;93.20
13203;DHT22;6666;51.626;7.530;2023-07-20T14:32:37;22.00;93.80
13203;DHT22;6666;51.626;7.530;2023-07-20T14:35:06;21.70;94.10
13203;DHT22;6666;51.626;7.530;2023-07-20T14:37:36;21.80;94.00
13203;DHT22;6666;51.626;7.530;2023-07-20T14:40:06;21.70;94.40
13203;DHT22;6666;51.626;7.530;2023-07-20T14:42:35;21.60;93.70
13203;DHT22;6666;51.626;7.530;2023-07-20T14:45:05;21.70;94.40
13203;DHT22;6666;51.626;7.530;2023-07-20T14:47:33;21.90;94.40
13203;DHT22;6666;51.626;7.530;2023-07-20T14:50:05;22.00;93.40
13203;DHT22;6666;51.626;7.530;2023-07-20T14:52:33;22.30;94.10
13203;DHT22;6666;51.626;7.530;2023-07-20T14:55:01;22.30;93.10
13203;DHT22;6666;51.626;7.530;2023-07-20T14:57:29;22.30;94.70
13203;DHT22;6666;51.626;7.530;2023-07-20T14:59:58;22.00;94.00
13203;DHT22;6666;51.626;7.530;2023-07-20T15:02:26;21.80;95.10
13203;DHT22;6666;51.626;7.530;2023-07-20T15:04:54;21.80;94.80
13203;DHT22;6666;51.626;7.530;2023-07-20T15:07:25;21.90;96.70
13203;DHT22;6666;51.626;7.530;2023-07-20T15:09:53;22.00;95.70
13203;DHT22;6666;51.626;7.530;2023-07-20T15:12:21;21.90;96.50
13203;DHT22;6666;51.626;7.530;2023-07-20T15:15:02;21.80;96.80
13203;DHT22;6666;51.626;7.530;2023-07-20T15:17:30;21.90;95.50
13203;DHT22;6666;51.626;7.530;2023-07-20T15:19:59;21.90;96.30
13203;DHT22;6666;51.626;7.530;2023-07-20T15:22:28;21.70;97.50
13203;DHT22;6666;51.626;7.530;2023-07-20T15:24:57;21.70;96.80
13203;DHT22;6666;51.626;7.530;2023-07-20T15:27:26;21.60;98.60
13203;DHT22;6666;51.626;7.530;2023-07-20T15:29:56;21.70;99.90
13203;DHT22;6666;51.626;7.530;2023-07-20T15:32:24;21.60;97.80
13203;DHT22;6666;51.626;7.530;2023-07-20T15:34:52;21.60;99.90
13203;DHT22;6666;51.626;7.530;2023-07-20T15:37:21;21.60;98.60
13203;DHT22;6666;51.626;7.530;2023-07-20T15:39:51;21.70;97.00
13203;DHT22;6666;51.626;7.530;2023-07-20T15:42:21;21.80;97.50
13203;DHT22;6666;51.626;7.530;2023-07-20T15:45:05;22.00;97.80
13203;DHT22;6666;51.626;7.530;2023-07-20T15:47:33;22.00;97.40
13203;DHT22;6666;51.626;7.530;2023-07-20T15:50:01;22.10;97.10
13203;DHT22;6666;51.626;7.530;2023-07-20T15:52:30;22.20;96.50
13203;DHT22;6666;51.626;7.530;2023-07-20T15:54:59;22.40;95.90
13203;DHT22;6666;51.626;7.530;2023-07-20T15:57:27;22.30;96.30
13203;DHT22;6666;51.626;7.530;2023-07-20T15:59:55;22.20;96.70
13203;DHT22;6666;51.626;7.530;2023-07-20T16:02:25;22.10;97.00
13203;DHT22;6666;51.626;7.530;2023-07-20T16:04:53;22.10;96.90
13203;DHT22;6666;51.626;7.530;2023-07-20T16:07:21;22.20;97.40